sensor_id;sensor_type;location;lat;lon;timestamp;P1;durP1;ratioP1;P2;durP2;ratioP2
83646;SDS011;73609;50.134;14.376;2024-01-30T00:00:05;75.3;;;21.9;;
83646;SDS011;73609;50.134;14.376;2024-01-30T00:02:05;82.6;;;23.0;;
83646;SDS011;73609;50.134;14.376;2024-01-30T00:04:05;74.8;;;22.3;;
83646;SDS011;73609;50.134;14.376;2024-01-30T00:06:05;86.3;;;22.4;;
83646;SDS011;73609;50.134;14.376;2024-01-30T00:08:05;56.3;;;21.2;;
83646;SDS011;73609;50.134;14.376;2024-01-30T00:10:05;80.4;;;22.0;;
83646;SDS011;73609;50.134;14.376;2024-01-30T00:12:05;64.3;;;20.1;;
83646;SDS011;73609;50.134;14.376;2024-01-30T00:14:05;63.9;;;20.7;;
83646;SDS011;73609;50.134;14.376;2024-01-30T00:16:05;61.7;;;21.0;;
83646;SDS011;73609;50.134;14.376;2024-01-30T00:18:05;51.3;;;19.8;;
83646;SDS011;73609;50.134;14.376;2024-01-30T00:20:05;45.0;;;18.0;;
83646;SDS011;73609;50.134;14.376;2024-01-30T00:22:05;88.7;;;19.8;;
83646;SDS011;73609;50.134;14.376;2024-01-30T00:24:05;49.3;;;19.5;;
83646;SDS011;73609;50.134;14.376;2024-01-30T00:26:05;69.8;;;20.7;;
83646;SDS011;73609;50.134;14.376;2024-01-30T00:28:05;56.0;;;20.1;;
83646;SDS011;73609;50.134;14.376;2024-01-30T00:30:05;87.9;;;21.3;;
83646;SDS011;73609;50.134;14.376;2024-01-30T00:32:05;76.6;;;21.9;;
83646;SDS011;73609;50.134;14.376;2024-01-30T00:34:05;52.6;;;20.8;;
83646;SDS011;73609;50.134;14.376;2024-01-30T00:36:05;42.4;;;20.1;;
83646;SDS011;73609;50.134;14.376;2024-01-30T00:38:05;51.7;;;19.4;;
83646;SDS011;73609;50.134;14.376;2024-01-30T00:40:05;47.3;;;19.0;;
83646;SDS011;73609;50.134;14.376;2024-01-30T00:42:05;38.3;;;18.2;;
83646;SDS011;73609;50.134;14.376;2024-01-30T00:44:05;46.0;;;19.0;;
83646;SDS011;73609;50.134;14.376;2024-01-30T00:46:06;55.1;;;18.5;;
83646;SDS011;73609;50.134;14.376;2024-01-30T00:48:05;62.3;;;18.4;;
83646;SDS011;73609;50.134;14.376;2024-01-30T00:50:05;51.6;;;19.0;;
83646;SDS011;73609;50.134;14.376;2024-01-30T00:52:05;51.9;;;18.7;;
83646;SDS011;73609;50.134;14.376;2024-01-30T00:54:05;71.3;;;19.6;;
83646;SDS011;73609;50.134;14.376;2024-01-30T00:56:05;61.5;;;19.5;;
83646;SDS011;73609;50.134;14.376;2024-01-30T00:58:05;43.9;;;18.5;;
83646;SDS011;73609;50.134;14.376;2024-01-30T01:00:05;46.1;;;19.1;;
83646;SDS011;73609;50.134;14.376;2024-01-30T01:10:07;70.7;;;19.3;;
83646;SDS011;73609;50.134;14.376;2024-01-30T01:12:05;66.2;;;18.5;;
83646;SDS011;73609;50.134;14.376;2024-01-30T01:14:05;67.5;;;20.1;;
83646;SDS011;73609;50.134;14.376;2024-01-30T01:16:05;71.7;;;19.8;;
83646;SDS011;73609;50.134;14.376;2024-01-30T01:18:05;41.9;;;18.3;;
83646;SDS011;73609;50.134;14.376;2024-01-30T01:20:05;37.6;;;18.5;;
83646;SDS011;73609;50.134;14.376;2024-01-30T01:22:05;36.9;;;18.7;;
83646;SDS011;73609;50.134;14.376;2024-01-30T01:24:05;43.1;;;18.2;;
83646;SDS011;73609;50.134;14.376;2024-01-30T01:26:05;38.3;;;19.2;;
83646;SDS011;73609;50.134;14.376;2024-01-30T01:28:05;56.4;;;19.7;;
83646;SDS011;73609;50.134;14.376;2024-01-30T01:30:05;46.4;;;18.3;;
83646;SDS011;73609;50.134;14.376;2024-01-30T01:32:05;44.6;;;18.1;;
83646;SDS011;73609;50.134;14.376;2024-01-30T01:34:05;94.8;;;19.4;;
83646;SDS011;73609;50.134;14.376;2024-01-30T01:36:05;66.7;;;19.3;;
83646;SDS011;73609;50.134;14.376;2024-01-30T01:38:05;42.5;;;19.7;;
83646;SDS011;73609;50.134;14.376;2024-01-30T01:40:05;60.5;;;20.7;;
83646;SDS011;73609;50.134;14.376;2024-01-30T01:42:05;63.8;;;20.5;;
83646;SDS011;73609;50.134;14.376;2024-01-30T01:44:05;37.4;;;18.8;;
83646;SDS011;73609;50.134;14.376;2024-01-30T01:46:06;55.1;;;19.3;;
83646;SDS011;73609;50.134;14.376;2024-01-30T01:48:05;78.9;;;18.5;;
83646;SDS011;73609;50.134;14.376;2024-01-30T01:50:05;57.0;;;18.4;;
83646;SDS011;73609;50.134;14.376;2024-01-30T01:52:05;57.4;;;18.1;;
83646;SDS011;73609;50.134;14.376;2024-01-30T01:54:05;48.3;;;20.2;;
83646;SDS011;73609;50.134;14.376;2024-01-30T01:56:05;36.9;;;17.8;;
83646;SDS011;73609;50.134;14.376;2024-01-30T01:58:05;54.7;;;19.0;;
83646;SDS011;73609;50.134;14.376;2024-01-30T02:00:05;47.3;;;18.0;;
83646;SDS011;73609;50.134;14.376;2024-01-30T02:02:05;47.7;;;18.3;;
83646;SDS011;73609;50.134;14.376;2024-01-30T02:04:05;47.1;;;17.8;;
83646;SDS011;73609;50.134;14.376;2024-01-30T02:06:05;41.7;;;17.4;;
83646;SDS011;73609;50.134;14.376;2024-01-30T02:08:05;54.1;;;17.9;;
83646;SDS011;73609;50.134;14.376;2024-01-30T02:10:05;57.3;;;18.3;;
83646;SDS011;73609;50.134;14.376;2024-01-30T02:12:05;42.0;;;18.2;;
83646;SDS011;73609;50.134;14.376;2024-01-30T02:14:05;90.3;;;20.1;;
83646;SDS011;73609;50.134;14.376;2024-01-30T02:16:05;48.9;;;19.5;;
83646;SDS011;73609;50.134;14.376;2024-01-30T02:18:05;53.1;;;20.2;;
83646;SDS011;73609;50.134;14.376;2024-01-30T02:20:05;51.3;;;19.5;;
83646;SDS011;73609;50.134;14.376;2024-01-30T02:22:05;62.7;;;19.9;;
83646;SDS011;73609;50.134;14.376;2024-01-30T02:24:05;72.3;;;19.0;;
83646;SDS011;73609;50.134;14.376;2024-01-30T02:26:05;70.7;;;19.0;;
83646;SDS011;73609;50.134;14.376;2024-01-30T02:28:05;55.7;;;18.1;;
83646;SDS011;73609;50.134;14.376;2024-01-30T02:30:05;65.9;;;18.0;;
83646;SDS011;73609;50.134;14.376;2024-01-30T02:32:05;48.2;;;17.0;;
83646;SDS011;73609;50.134;14.376;2024-01-30T02:34:05;58.8;;;17.9;;
83646;SDS011;73609;50.134;14.376;2024-01-30T02:36:05;46.0;;;17.1;;
83646;SDS011;73609;50.134;14.376;2024-01-30T02:38:05;38.9;;;18.0;;
83646;SDS011;73609;50.134;14.376;2024-01-30T02:40:05;52.1;;;18.6;;
83646;SDS011;73609;50.134;14.376;2024-01-30T02:42:05;45.8;;;17.5;;
83646;SDS011;73609;50.134;14.376;2024-01-30T02:44:05;47.7;;;17.8;;
83646;SDS011;73609;50.134;14.376;2024-01-30T02:46:07;58.7;;;18.7;;
83646;SDS011;73609;50.134;14.376;2024-01-30T02:48:05;49.7;;;18.0;;
83646;SDS011;73609;50.134;14.376;2024-01-30T02:50:05;44.3;;;17.5;;
83646;SDS011;73609;50.134;14.376;2024-01-30T02:52:05;49.9;;;18.2;;
83646;SDS011;73609;50.134;14.376;2024-01-30T02:54:05;43.8;;;18.1;;
83646;SDS011;73609;50.134;14.376;2024-01-30T02:56:05;38.1;;;17.8;;
83646;SDS011;73609;50.134;14.376;2024-01-30T02:58:05;42.3;;;17.9;;
83646;SDS011;73609;50.134;14.376;2024-01-30T03:00:05;46.2;;;17.5;;
83646;SDS011;73609;50.134;14.376;2024-01-30T03:02:05;41.1;;;18.9;;
83646;SDS011;73609;50.134;14.376;2024-01-30T03:04:05;64.6;;;19.5;;
83646;SDS011;73609;50.134;14.376;2024-01-30T03:06:05;55.1;;;17.5;;
83646;SDS011;73609;50.134;14.376;2024-01-30T03:08:05;50.7;;;17.9;;
83646;SDS011;73609;50.134;14.376;2024-01-30T03:10:05;60.2;;;18.8;;
83646;SDS011;73609;50.134;14.376;2024-01-30T03:12:05;42.4;;;18.6;;
83646;SDS011;73609;50.134;14.376;2024-01-30T03:14:05;40.2;;;17.6;;
83646;SDS011;73609;50.134;14.376;2024-01-30T03:16:05;44.6;;;18.3;;
83646;SDS011;73609;50.134;14.376;2024-01-30T03:18:05;63.5;;;18.8;;
83646;SDS011;73609;50.134;14.376;2024-01-30T03:20:05;36.1;;;17.5;;
83646;SDS011;73609;50.134;14.376;2024-01-30T03:22:05;42.0;;;18.6;;
83646;SDS011;73609;50.134;14.376;2024-01-30T03:24:05;69.7;;;19.1;;
83646;SDS011;73609;50.134;14.376;2024-01-30T03:26:05;58.8;;;17.7;;
83646;SDS011;73609;50.134;14.376;2024-01-30T03:28:05;37.6;;;17.2;;
83646;SDS011;73609;50.134;14.376;2024-01-30T03:30:05;40.1;;;17.9;;
83646;SDS011;73609;50.134;14.376;2024-01-30T03:32:05;45.9;;;18.3;;
83646;SDS011;73609;50.134;14.376;2024-01-30T03:34:05;40.7;;;18.1;;
83646;SDS011;73609;50.134;14.376;2024-01-30T03:36:05;60.1;;;18.5;;
83646;SDS011;73609;50.134;14.376;2024-01-30T03:38:05;37.1;;;19.4;;
83646;SDS011;73609;50.134;14.376;2024-01-30T03:40:05;43.8;;;19.4;;
83646;SDS011;73609;50.134;14.376;2024-01-30T03:42:05;39.2;;;18.2;;
83646;SDS011;73609;50.134;14.376;2024-01-30T03:44:05;50.2;;;18.8;;
83646;SDS011;73609;50.134;14.376;2024-01-30T03:46:05;43.7;;;19.1;;
83646;SDS011;73609;50.134;14.376;2024-01-30T03:48:05;52.1;;;18.1;;
83646;SDS011;73609;50.134;14.376;2024-01-30T03:50:05;110.8;;;20.1;;
83646;SDS011;73609;50.134;14.376;2024-01-30T03:52:05;45.1;;;18.7;;
83646;SDS011;73609;50.134;14.376;2024-01-30T03:54:05;50.5;;;18.8;;
83646;SDS011;73609;50.134;14.376;2024-01-30T03:56:05;37.6;;;18.2;;
83646;SDS011;73609;50.134;14.376;2024-01-30T03:58:06;39.8;;;17.9;;
83646;SDS011;73609;50.134;14.376;2024-01-30T04:00:05;69.9;;;20.2;;
83646;SDS011;73609;50.134;14.376;2024-01-30T04:02:05;41.9;;;18.9;;
83646;SDS011;73609;50.134;14.376;2024-01-30T04:04:05;47.7;;;18.5;;
83646;SDS011;73609;50.134;14.376;2024-01-30T04:06:05;36.8;;;18.7;;
83646;SDS011;73609;50.134;14.376;2024-01-30T04:08:05;59.0;;;19.2;;
83646;SDS011;73609;50.134;14.376;2024-01-30T04:10:05;60.3;;;18.7;;
83646;SDS011;73609;50.134;14.376;2024-01-30T04:12:05;68.7;;;18.4;;
83646;SDS011;73609;50.134;14.376;2024-01-30T04:14:05;63.2;;;19.0;;
83646;SDS011;73609;50.134;14.376;2024-01-30T04:16:05;49.7;;;18.5;;
83646;SDS011;73609;50.134;14.376;2024-01-30T04:18:05;51.2;;;17.8;;
83646;SDS011;73609;50.134;14.376;2024-01-30T04:20:05;42.1;;;18.1;;
83646;SDS011;73609;50.134;14.376;2024-01-30T04:22:05;66.5;;;18.4;;
83646;SDS011;73609;50.134;14.376;2024-01-30T04:24:05;44.6;;;18.0;;
83646;SDS011;73609;50.134;14.376;2024-01-30T04:26:05;39.5;;;18.2;;
83646;SDS011;73609;50.134;14.376;2024-01-30T04:28:05;64.5;;;18.6;;
83646;SDS011;73609;50.134;14.376;2024-01-30T04:30:05;41.5;;;17.5;;
83646;SDS011;73609;50.134;14.376;2024-01-30T04:32:05;43.9;;;17.8;;
83646;SDS011;73609;50.134;14.376;2024-01-30T04:34:05;40.7;;;17.7;;
83646;SDS011;73609;50.134;14.376;2024-01-30T04:36:08;52.6;;;19.1;;
83646;SDS011;73609;50.134;14.376;2024-01-30T04:38:05;37.8;;;17.5;;
83646;SDS011;73609;50.134;14.376;2024-01-30T04:40:05;40.6;;;17.9;;
83646;SDS011;73609;50.134;14.376;2024-01-30T04:42:05;45.2;;;17.8;;
83646;SDS011;73609;50.134;14.376;2024-01-30T04:44:05;39.3;;;17.2;;
83646;SDS011;73609;50.134;14.376;2024-01-30T04:46:05;43.1;;;17.6;;
83646;SDS011;73609;50.134;14.376;2024-01-30T04:48:05;45.6;;;17.6;;
83646;SDS011;73609;50.134;14.376;2024-01-30T04:50:06;53.9;;;17.0;;
83646;SDS011;73609;50.134;14.376;2024-01-30T04:52:05;45.0;;;17.6;;
83646;SDS011;73609;50.134;14.376;2024-01-30T04:54:05;45.0;;;16.6;;
83646;SDS011;73609;50.134;14.376;2024-01-30T04:56:05;54.7;;;18.0;;
83646;SDS011;73609;50.134;14.376;2024-01-30T04:58:05;35.8;;;17.5;;
83646;SDS011;73609;50.134;14.376;2024-01-30T05:00:05;44.2;;;17.2;;
83646;SDS011;73609;50.134;14.376;2024-01-30T05:02:05;39.7;;;16.4;;
83646;SDS011;73609;50.134;14.376;2024-01-30T05:04:07;36.1;;;17.4;;
83646;SDS011;73609;50.134;14.376;2024-01-30T05:06:05;37.3;;;17.3;;
83646;SDS011;73609;50.134;14.376;2024-01-30T05:08:05;52.2;;;16.2;;
83646;SDS011;73609;50.134;14.376;2024-01-30T05:10:05;48.0;;;16.6;;
83646;SDS011;73609;50.134;14.376;2024-01-30T05:12:05;45.2;;;16.3;;
83646;SDS011;73609;50.134;14.376;2024-01-30T05:14:05;36.5;;;16.0;;
83646;SDS011;73609;50.134;14.376;2024-01-30T05:16:05;43.4;;;17.1;;
83646;SDS011;73609;50.134;14.376;2024-01-30T05:18:05;58.6;;;16.5;;
83646;SDS011;73609;50.134;14.376;2024-01-30T05:20:05;41.1;;;17.0;;
83646;SDS011;73609;50.134;14.376;2024-01-30T05:22:05;51.4;;;17.1;;
83646;SDS011;73609;50.134;14.376;2024-01-30T05:24:05;51.3;;;17.0;;
83646;SDS011;73609;50.134;14.376;2024-01-30T05:26:05;39.5;;;15.8;;
83646;SDS011;73609;50.134;14.376;2024-01-30T05:28:05;41.5;;;15.7;;
83646;SDS011;73609;50.134;14.376;2024-01-30T05:30:05;37.8;;;14.9;;
83646;SDS011;73609;50.134;14.376;2024-01-30T05:32:05;28.4;;;13.5;;
83646;SDS011;73609;50.134;14.376;2024-01-30T05:34:05;39.8;;;15.0;;
83646;SDS011;73609;50.134;14.376;2024-01-30T05:36:05;41.8;;;15.2;;
83646;SDS011;73609;50.134;14.376;2024-01-30T05:38:05;29.0;;;14.6;;
83646;SDS011;73609;50.134;14.376;2024-01-30T05:40:05;50.5;;;26.0;;
83646;SDS011;73609;50.134;14.376;2024-01-30T05:42:05;41.0;;;19.0;;
83646;SDS011;73609;50.134;14.376;2024-01-30T05:44:05;41.1;;;16.0;;
83646;SDS011;73609;50.134;14.376;2024-01-30T05:46:06;33.4;;;15.1;;
83646;SDS011;73609;50.134;14.376;2024-01-30T05:48:05;30.0;;;14.5;;
83646;SDS011;73609;50.134;14.376;2024-01-30T05:50:05;31.3;;;15.1;;
83646;SDS011;73609;50.134;14.376;2024-01-30T05:52:05;34.4;;;15.3;;
83646;SDS011;73609;50.134;14.376;2024-01-30T05:54:05;64.9;;;39.5;;
83646;SDS011;73609;50.134;14.376;2024-01-30T05:56:05;48.9;;;29.1;;
83646;SDS011;73609;50.134;14.376;2024-01-30T05:58:05;47.0;;;23.3;;
83646;SDS011;73609;50.134;14.376;2024-01-30T06:00:05;39.0;;;19.9;;
83646;SDS011;73609;50.134;14.376;2024-01-30T06:02:05;34.5;;;18.4;;
83646;SDS011;73609;50.134;14.376;2024-01-30T06:04:05;35.5;;;16.5;;
83646;SDS011;73609;50.134;14.376;2024-01-30T06:06:05;35.2;;;15.3;;
83646;SDS011;73609;50.134;14.376;2024-01-30T06:08:05;35.6;;;15.5;;
83646;SDS011;73609;50.134;14.376;2024-01-30T06:10:05;39.8;;;15.2;;
83646;SDS011;73609;50.134;14.376;2024-01-30T06:12:05;28.1;;;14.7;;
83646;SDS011;73609;50.134;14.376;2024-01-30T06:14:05;30.3;;;16.4;;
83646;SDS011;73609;50.134;14.376;2024-01-30T06:16:08;53.8;;;18.9;;
83646;SDS011;73609;50.134;14.376;2024-01-30T06:18:05;46.7;;;26.0;;
83646;SDS011;73609;50.134;14.376;2024-01-30T06:20:05;32.9;;;16.7;;
83646;SDS011;73609;50.134;14.376;2024-01-30T06:22:05;37.2;;;17.2;;
83646;SDS011;73609;50.134;14.376;2024-01-30T06:24:05;40.7;;;16.9;;
83646;SDS011;73609;50.134;14.376;2024-01-30T06:26:06;45.1;;;17.0;;
83646;SDS011;73609;50.134;14.376;2024-01-30T06:28:05;32.9;;;16.8;;
83646;SDS011;73609;50.134;14.376;2024-01-30T06:30:05;32.9;;;16.2;;
83646;SDS011;73609;50.134;14.376;2024-01-30T06:32:05;32.3;;;17.0;;
83646;SDS011;73609;50.134;14.376;2024-01-30T06:34:05;40.7;;;19.5;;
83646;SDS011;73609;50.134;14.376;2024-01-30T06:36:05;39.6;;;19.1;;
83646;SDS011;73609;50.134;14.376;2024-01-30T06:38:05;40.6;;;20.7;;
83646;SDS011;73609;50.134;14.376;2024-01-30T06:40:05;37.6;;;17.8;;
83646;SDS011;73609;50.134;14.376;2024-01-30T06:42:05;60.0;;;18.3;;
83646;SDS011;73609;50.134;14.376;2024-01-30T06:44:05;38.3;;;18.6;;
83646;SDS011;73609;50.134;14.376;2024-01-30T06:46:05;40.8;;;17.3;;
83646;SDS011;73609;50.134;14.376;2024-01-30T06:48:05;41.9;;;17.6;;
83646;SDS011;73609;50.134;14.376;2024-01-30T06:50:05;41.0;;;17.6;;
83646;SDS011;73609;50.134;14.376;2024-01-30T06:52:05;41.7;;;17.1;;
83646;SDS011;73609;50.134;14.376;2024-01-30T06:54:05;38.4;;;18.2;;
83646;SDS011;73609;50.134;14.376;2024-01-30T06:56:05;64.8;;;18.4;;
83646;SDS011;73609;50.134;14.376;2024-01-30T06:58:05;42.2;;;16.9;;
83646;SDS011;73609;50.134;14.376;2024-01-30T07:00:05;52.8;;;17.6;;
83646;SDS011;73609;50.134;14.376;2024-01-30T07:02:05;51.2;;;19.0;;
83646;SDS011;73609;50.134;14.376;2024-01-30T07:04:05;44.6;;;18.3;;
83646;SDS011;73609;50.134;14.376;2024-01-30T07:06:05;37.2;;;18.2;;
83646;SDS011;73609;50.134;14.376;2024-01-30T07:08:05;45.5;;;20.4;;
83646;SDS011;73609;50.134;14.376;2024-01-30T07:10:05;45.5;;;17.1;;
83646;SDS011;73609;50.134;14.376;2024-01-30T07:12:05;46.9;;;21.2;;
83646;SDS011;73609;50.134;14.376;2024-01-30T07:14:05;44.1;;;18.6;;
83646;SDS011;73609;50.134;14.376;2024-01-30T07:16:05;33.8;;;16.9;;
83646;SDS011;73609;50.134;14.376;2024-01-30T07:18:05;38.5;;;17.4;;
83646;SDS011;73609;50.134;14.376;2024-01-30T07:20:05;64.1;;;17.2;;
83646;SDS011;73609;50.134;14.376;2024-01-30T07:22:05;74.6;;;18.8;;
83646;SDS011;73609;50.134;14.376;2024-01-30T07:24:05;43.8;;;17.8;;
83646;SDS011;73609;50.134;14.376;2024-01-30T07:26:05;35.1;;;16.4;;
83646;SDS011;73609;50.134;14.376;2024-01-30T07:28:05;41.3;;;17.7;;
83646;SDS011;73609;50.134;14.376;2024-01-30T07:30:05;67.6;;;29.5;;
83646;SDS011;73609;50.134;14.376;2024-01-30T07:32:05;50.4;;;19.4;;
83646;SDS011;73609;50.134;14.376;2024-01-30T07:34:06;37.9;;;17.4;;
83646;SDS011;73609;50.134;14.376;2024-01-30T07:36:05;37.7;;;17.7;;
83646;SDS011;73609;50.134;14.376;2024-01-30T07:38:05;36.2;;;18.4;;
83646;SDS011;73609;50.134;14.376;2024-01-30T07:40:05;42.0;;;18.8;;
83646;SDS011;73609;50.134;14.376;2024-01-30T07:42:05;47.5;;;18.2;;
83646;SDS011;73609;50.134;14.376;2024-01-30T07:44:05;46.8;;;17.3;;
83646;SDS011;73609;50.134;14.376;2024-01-30T07:46:05;36.9;;;16.0;;
83646;SDS011;73609;50.134;14.376;2024-01-30T07:48:05;35.6;;;16.4;;
83646;SDS011;73609;50.134;14.376;2024-01-30T07:50:05;32.6;;;16.6;;
83646;SDS011;73609;50.134;14.376;2024-01-30T07:52:05;40.7;;;16.4;;
83646;SDS011;73609;50.134;14.376;2024-01-30T07:54:05;46.8;;;18.0;;
83646;SDS011;73609;50.134;14.376;2024-01-30T07:56:05;44.3;;;18.5;;
83646;SDS011;73609;50.134;14.376;2024-01-30T07:58:05;36.9;;;18.1;;
83646;SDS011;73609;50.134;14.376;2024-01-30T08:00:05;47.2;;;18.7;;
83646;SDS011;73609;50.134;14.376;2024-01-30T08:02:05;40.2;;;18.7;;
83646;SDS011;73609;50.134;14.376;2024-01-30T08:04:05;43.3;;;17.4;;
83646;SDS011;73609;50.134;14.376;2024-01-30T08:06:05;43.1;;;18.9;;
83646;SDS011;73609;50.134;14.376;2024-01-30T08:08:05;42.1;;;18.2;;
83646;SDS011;73609;50.134;14.376;2024-01-30T08:10:05;43.6;;;18.5;;
83646;SDS011;73609;50.134;14.376;2024-01-30T08:12:05;39.9;;;17.8;;
83646;SDS011;73609;50.134;14.376;2024-01-30T08:14:05;45.0;;;19.0;;
83646;SDS011;73609;50.134;14.376;2024-01-30T08:16:05;40.4;;;17.9;;
83646;SDS011;73609;50.134;14.376;2024-01-30T08:18:05;51.0;;;17.8;;
83646;SDS011;73609;50.134;14.376;2024-01-30T08:20:05;37.7;;;17.2;;
83646;SDS011;73609;50.134;14.376;2024-01-30T08:22:05;36.3;;;18.1;;
83646;SDS011;73609;50.134;14.376;2024-01-30T08:24:05;39.7;;;17.8;;
83646;SDS011;73609;50.134;14.376;2024-01-30T08:26:05;33.6;;;17.1;;
83646;SDS011;73609;50.134;14.376;2024-01-30T08:28:05;40.8;;;17.3;;
83646;SDS011;73609;50.134;14.376;2024-01-30T08:30:06;35.4;;;17.8;;
83646;SDS011;73609;50.134;14.376;2024-01-30T08:32:05;37.8;;;17.5;;
83646;SDS011;73609;50.134;14.376;2024-01-30T08:34:05;34.0;;;17.4;;
83646;SDS011;73609;50.134;14.376;2024-01-30T08:36:05;35.4;;;18.3;;
83646;SDS011;73609;50.134;14.376;2024-01-30T08:38:05;35.8;;;17.5;;
83646;SDS011;73609;50.134;14.376;2024-01-30T08:40:05;35.7;;;16.8;;
83646;SDS011;73609;50.134;14.376;2024-01-30T08:42:05;36.2;;;17.7;;
83646;SDS011;73609;50.134;14.376;2024-01-30T08:44:05;37.1;;;18.4;;
83646;SDS011;73609;50.134;14.376;2024-01-30T08:46:05;38.9;;;19.2;;
83646;SDS011;73609;50.134;14.376;2024-01-30T08:48:05;41.1;;;20.2;;
83646;SDS011;73609;50.134;14.376;2024-01-30T08:50:05;40.5;;;19.7;;
83646;SDS011;73609;50.134;14.376;2024-01-30T08:52:05;43.7;;;20.4;;
83646;SDS011;73609;50.134;14.376;2024-01-30T08:54:05;43.7;;;20.4;;
83646;SDS011;73609;50.134;14.376;2024-01-30T08:56:05;41.5;;;20.6;;
83646;SDS011;73609;50.134;14.376;2024-01-30T08:58:05;43.6;;;20.6;;
83646;SDS011;73609;50.134;14.376;2024-01-30T09:00:05;45.6;;;21.6;;
83646;SDS011;73609;50.134;14.376;2024-01-30T09:02:05;48.6;;;22.9;;
83646;SDS011;73609;50.134;14.376;2024-01-30T09:04:05;52.2;;;21.7;;
83646;SDS011;73609;50.134;14.376;2024-01-30T09:06:08;42.4;;;21.1;;
83646;SDS011;73609;50.134;14.376;2024-01-30T09:08:05;42.7;;;20.1;;
83646;SDS011;73609;50.134;14.376;2024-01-30T09:10:05;48.0;;;22.7;;
83646;SDS011;73609;50.134;14.376;2024-01-30T09:12:05;49.6;;;22.3;;
83646;SDS011;73609;50.134;14.376;2024-01-30T09:14:05;43.1;;;21.2;;
83646;SDS011;73609;50.134;14.376;2024-01-30T09:16:05;43.3;;;20.5;;
83646;SDS011;73609;50.134;14.376;2024-01-30T09:18:05;46.4;;;21.4;;
83646;SDS011;73609;50.134;14.376;2024-01-30T09:20:05;46.3;;;22.2;;
83646;SDS011;73609;50.134;14.376;2024-01-30T09:22:05;43.8;;;22.0;;
83646;SDS011;73609;50.134;14.376;2024-01-30T09:24:05;46.2;;;23.1;;
83646;SDS011;73609;50.134;14.376;2024-01-30T09:26:05;49.4;;;22.6;;
83646;SDS011;73609;50.134;14.376;2024-01-30T09:28:05;48.6;;;22.9;;
83646;SDS011;73609;50.134;14.376;2024-01-30T09:30:05;48.0;;;22.9;;
83646;SDS011;73609;50.134;14.376;2024-01-30T09:32:05;54.5;;;23.3;;
83646;SDS011;73609;50.134;14.376;2024-01-30T09:34:05;50.5;;;22.9;;
83646;SDS011;73609;50.134;14.376;2024-01-30T09:36:05;48.9;;;23.0;;
83646;SDS011;73609;50.134;14.376;2024-01-30T09:38:05;53.3;;;24.8;;
83646;SDS011;73609;50.134;14.376;2024-01-30T09:40:05;53.8;;;24.5;;
83646;SDS011;73609;50.134;14.376;2024-01-30T09:42:07;54.2;;;25.0;;
83646;SDS011;73609;50.134;14.376;2024-01-30T09:44:05;58.6;;;27.7;;
83646;SDS011;73609;50.134;14.376;2024-01-30T09:46:05;57.4;;;27.0;;
83646;SDS011;73609;50.134;14.376;2024-01-30T09:48:05;63.6;;;29.3;;
83646;SDS011;73609;50.134;14.376;2024-01-30T09:50:05;57.2;;;28.0;;
83646;SDS011;73609;50.134;14.376;2024-01-30T09:52:05;54.6;;;26.4;;
83646;SDS011;73609;50.134;14.376;2024-01-30T09:54:05;49.5;;;24.8;;
83646;SDS011;73609;50.134;14.376;2024-01-30T09:56:05;52.7;;;25.7;;
83646;SDS011;73609;50.134;14.376;2024-01-30T09:58:05;52.7;;;24.4;;
83646;SDS011;73609;50.134;14.376;2024-01-30T10:00:05;48.8;;;25.3;;
83646;SDS011;73609;50.134;14.376;2024-01-30T10:02:05;53.4;;;26.3;;
83646;SDS011;73609;50.134;14.376;2024-01-30T10:04:05;54.4;;;26.2;;
83646;SDS011;73609;50.134;14.376;2024-01-30T10:06:05;52.1;;;25.9;;
83646;SDS011;73609;50.134;14.376;2024-01-30T10:08:06;54.8;;;27.1;;
83646;SDS011;73609;50.134;14.376;2024-01-30T10:10:05;55.9;;;26.7;;
83646;SDS011;73609;50.134;14.376;2024-01-30T10:12:05;49.1;;;24.9;;
83646;SDS011;73609;50.134;14.376;2024-01-30T10:14:05;48.7;;;24.4;;
83646;SDS011;73609;50.134;14.376;2024-01-30T10:16:05;49.5;;;24.4;;
83646;SDS011;73609;50.134;14.376;2024-01-30T10:18:05;48.1;;;25.7;;
83646;SDS011;73609;50.134;14.376;2024-01-30T10:20:05;48.4;;;25.1;;
83646;SDS011;73609;50.134;14.376;2024-01-30T10:22:05;50.7;;;24.5;;
83646;SDS011;73609;50.134;14.376;2024-01-30T10:24:05;46.7;;;24.4;;
83646;SDS011;73609;50.134;14.376;2024-01-30T10:26:06;50.4;;;24.8;;
83646;SDS011;73609;50.134;14.376;2024-01-30T10:28:05;46.9;;;24.7;;
83646;SDS011;73609;50.134;14.376;2024-01-30T10:30:05;45.8;;;24.4;;
83646;SDS011;73609;50.134;14.376;2024-01-30T10:32:05;47.5;;;24.6;;
83646;SDS011;73609;50.134;14.376;2024-01-30T10:34:05;48.9;;;24.0;;
83646;SDS011;73609;50.134;14.376;2024-01-30T10:36:05;46.0;;;23.8;;
83646;SDS011;73609;50.134;14.376;2024-01-30T10:38:05;43.5;;;22.3;;
83646;SDS011;73609;50.134;14.376;2024-01-30T10:40:05;43.8;;;24.5;;
83646;SDS011;73609;50.134;14.376;2024-01-30T10:42:05;38.9;;;22.4;;
83646;SDS011;73609;50.134;14.376;2024-01-30T10:44:09;40.7;;;22.9;;
83646;SDS011;73609;50.134;14.376;2024-01-30T10:46:09;41.2;;;22.8;;
83646;SDS011;73609;50.134;14.376;2024-01-30T10:48:05;39.0;;;21.5;;
83646;SDS011;73609;50.134;14.376;2024-01-30T10:50:05;37.3;;;20.7;;
83646;SDS011;73609;50.134;14.376;2024-01-30T10:52:05;35.0;;;21.1;;
83646;SDS011;73609;50.134;14.376;2024-01-30T10:54:05;39.1;;;20.8;;
83646;SDS011;73609;50.134;14.376;2024-01-30T10:56:05;37.3;;;21.3;;
83646;SDS011;73609;50.134;14.376;2024-01-30T10:58:05;39.4;;;21.0;;
83646;SDS011;73609;50.134;14.376;2024-01-30T11:00:06;37.7;;;21.9;;
83646;SDS011;73609;50.134;14.376;2024-01-30T11:02:05;37.6;;;21.4;;
83646;SDS011;73609;50.134;14.376;2024-01-30T11:04:05;37.7;;;21.9;;
83646;SDS011;73609;50.134;14.376;2024-01-30T11:06:05;35.1;;;21.1;;
83646;SDS011;73609;50.134;14.376;2024-01-30T11:08:12;40.5;;;21.7;;
83646;SDS011;73609;50.134;14.376;2024-01-30T11:10:05;38.0;;;20.7;;
83646;SDS011;73609;50.134;14.376;2024-01-30T11:12:05;36.6;;;21.0;;
83646;SDS011;73609;50.134;14.376;2024-01-30T11:14:05;38.8;;;21.6;;
83646;SDS011;73609;50.134;14.376;2024-01-30T11:16:05;39.4;;;20.9;;
83646;SDS011;73609;50.134;14.376;2024-01-30T11:18:05;38.0;;;21.0;;
83646;SDS011;73609;50.134;14.376;2024-01-30T11:20:05;36.3;;;21.5;;
83646;SDS011;73609;50.134;14.376;2024-01-30T11:22:06;35.0;;;20.6;;
83646;SDS011;73609;50.134;14.376;2024-01-30T11:24:05;34.8;;;20.8;;
83646;SDS011;73609;50.134;14.376;2024-01-30T11:26:05;37.4;;;21.3;;
83646;SDS011;73609;50.134;14.376;2024-01-30T11:28:05;38.0;;;21.8;;
83646;SDS011;73609;50.134;14.376;2024-01-30T11:30:05;35.2;;;21.4;;
83646;SDS011;73609;50.134;14.376;2024-01-30T11:32:05;34.9;;;21.5;;
83646;SDS011;73609;50.134;14.376;2024-01-30T11:34:05;36.5;;;21.2;;
83646;SDS011;73609;50.134;14.376;2024-01-30T11:36:05;36.7;;;21.0;;
83646;SDS011;73609;50.134;14.376;2024-01-30T11:38:05;35.6;;;20.4;;
83646;SDS011;73609;50.134;14.376;2024-01-30T11:40:05;37.9;;;21.1;;
83646;SDS011;73609;50.134;14.376;2024-01-30T11:42:06;37.1;;;21.5;;
83646;SDS011;73609;50.134;14.376;2024-01-30T11:44:05;36.5;;;20.7;;
83646;SDS011;73609;50.134;14.376;2024-01-30T11:46:06;35.0;;;20.6;;
83646;SDS011;73609;50.134;14.376;2024-01-30T11:48:05;35.8;;;21.8;;
83646;SDS011;73609;50.134;14.376;2024-01-30T11:50:05;36.7;;;22.5;;
83646;SDS011;73609;50.134;14.376;2024-01-30T11:52:05;36.2;;;20.8;;
83646;SDS011;73609;50.134;14.376;2024-01-30T11:54:05;36.1;;;21.4;;
83646;SDS011;73609;50.134;14.376;2024-01-30T11:56:06;34.1;;;20.1;;
83646;SDS011;73609;50.134;14.376;2024-01-30T11:58:05;36.2;;;21.1;;